Time;durP1;ratioP1;P1;durP2;ratioP2;P2;SDS_P1;SDS_P2;PMS_P1;PMS_P2;Temp;Humidity;BMP_temperature;BMP_pressure;BME280_temperature;BME280_humidity;BME280_pressure;Samples;Min_cycle;Max_cycle;Signal;HPM_P1;HPM_P2
2022/07/05 00:02:18;;;;;;;5.45;3.70;;;;;;;;;;5014147;28;20022;-79
2022/07/05 00:04:44;;;;;;;6.05;3.85;;;;;;;;;;5014119;28;20092;-79
2022/07/05 00:07:20;;;;;;;5.97;4.10;;;;;;;;;;5012489;28;20109;-78
2022/07/05 00:09:47;;;;;;;6.45;4.40;;;;;;;;;;5013598;28;20026;-78
2022/07/05 00:12:13;;;;;;;7.00;4.63;;;;;;;;;;4999161;28;20030;-79
2022/07/05 00:14:40;;;;;;;6.60;3.88;;;;;;;;;;4994107;28;20419;-79
2022/07/05 00:17:06;;;;;;;6.80;4.25;;;;;;;;;;4997447;28;20022;-79
2022/07/05 00:19:32;;;;;;;6.75;4.85;;;;;;;;;;5013345;28;20026;-78
2022/07/05 00:21:58;;;;;;;6.57;4.90;;;;;;;;;;5013426;28;20022;-78
2022/07/05 00:24:25;;;;;;;7.63;4.68;;;;;;;;;;5012323;28;20064;-79
2022/07/05 00:26:51;;;;;;;7.40;4.90;;;;;;;;;;5012145;28;20034;-79
2022/07/05 00:29:17;;;;;;;6.75;5.03;;;;;;;;;;5013607;28;20215;-79
2022/07/05 00:31:43;;;;;;;5.53;4.00;;;;;;;;;;5000259;28;20033;-79
2022/07/05 00:34:09;;;;;;;7.20;4.97;;;;;;;;;;4993286;28;20027;-79
2022/07/05 00:36:35;;;;;;;8.73;5.63;;;;;;;;;;4993046;28;20037;-79
2022/07/05 00:39:01;;;;;;;6.28;4.68;;;;;;;;;;5013197;28;20543;-79
2022/07/05 00:41:27;;;;;;;11.52;7.25;;;;;;;;;;5012887;28;20111;-78
2022/07/05 00:43:55;;;;;;;7.35;5.38;;;;;;;;;;5011790;28;20033;-78
2022/07/05 00:46:21;;;;;;;7.00;5.28;;;;;;;;;;5013606;28;20354;-78
2022/07/05 00:48:47;;;;;;;10.27;6.85;;;;;;;;;;5013325;28;20084;-78
2022/07/05 00:51:13;;;;;;;10.77;6.43;;;;;;;;;;5013029;28;20045;-79
2022/07/05 00:53:40;;;;;;;7.18;5.90;;;;;;;;;;5011696;28;20025;-78
2022/07/05 00:56:06;;;;;;;7.57;5.90;;;;;;;;;;5011942;28;20029;-79
2022/07/05 00:58:33;;;;;;;7.93;5.45;;;;;;;;;;5012599;28;20022;-79
2022/07/05 01:00:59;;;;;;;7.25;4.68;;;;;;;;;;5005959;28;20076;-79
2022/07/05 01:03:27;;;;;;;8.43;5.80;;;;;;;;;;4997227;28;20113;-79
2022/07/05 01:05:53;;;;;;;6.75;5.18;;;;;;;;;;4992954;28;20027;-79
2022/07/05 01:08:19;;;;;;;7.05;4.90;;;;;;;;;;4993522;28;20033;-78
2022/07/05 01:10:46;;;;;;;6.88;4.20;;;;;;;;;;4992316;28;20038;-78
2022/07/05 01:13:12;;;;;;;6.22;4.00;;;;;;;;;;4994644;28;20042;-79
2022/07/05 01:15:38;;;;;;;6.30;4.00;;;;;;;;;;5013121;28;20022;-78
2022/07/05 01:18:05;;;;;;;6.20;4.03;;;;;;;;;;5013013;28;20484;-79
2022/07/05 01:20:31;;;;;;;5.63;3.72;;;;;;;;;;5009043;28;20100;-78
2022/07/05 01:22:59;;;;;;;5.80;3.85;;;;;;;;;;5007171;28;20037;-79
2022/07/05 01:25:27;;;;;;;6.18;4.20;;;;;;;;;;5000349;28;20029;-79
2022/07/05 01:27:53;;;;;;;5.88;3.90;;;;;;;;;;4993208;28;20035;-79
2022/07/05 01:30:20;;;;;;;5.82;3.60;;;;;;;;;;4992333;28;20037;-79
2022/07/05 01:32:46;;;;;;;6.15;4.00;;;;;;;;;;4992844;28;20477;-78
2022/07/05 01:35:13;;;;;;;6.47;4.60;;;;;;;;;;4992893;28;20074;-79
2022/07/05 01:37:39;;;;;;;6.25;4.10;;;;;;;;;;4993127;28;20027;-79
2022/07/05 01:40:05;;;;;;;5.82;4.05;;;;;;;;;;5008759;28;20436;-79
2022/07/05 01:42:31;;;;;;;6.55;4.20;;;;;;;;;;5012229;28;20396;-78
2022/07/05 01:44:57;;;;;;;7.43;4.20;;;;;;;;;;5012340;28;20029;-79
2022/07/05 01:47:24;;;;;;;5.85;4.25;;;;;;;;;;5012092;28;20502;-79
2022/07/05 01:49:52;;;;;;;7.55;4.80;;;;;;;;;;5010962;28;20496;-79
2022/07/05 01:52:21;;;;;;;7.88;4.78;;;;;;;;;;5012030;28;20037;-79
2022/07/05 01:54:47;;;;;;;9.02;4.45;;;;;;;;;;5005938;28;20030;-79
2022/07/05 01:57:13;;;;;;;5.93;3.78;;;;;;;;;;4991731;28;20026;-79
2022/07/05 01:59:40;;;;;;;5.68;3.92;;;;;;;;;;5012140;28;20018;-79
2022/07/05 02:02:07;;;;;;;6.32;4.10;;;;;;;;;;5012131;28;20022;-79
2022/07/05 02:04:36;;;;;;;5.60;4.30;;;;;;;;;;5012003;28;20050;-78
2022/07/05 02:07:06;;;;;;;5.55;3.90;;;;;;;;;;4995784;28;20037;-79
2022/07/05 02:09:32;;;;;;;6.72;4.30;;;;;;;;;;5012096;28;20100;-79
2022/07/05 02:11:58;;;;;;;6.40;4.15;;;;;;;;;;5012192;28;20018;-79
2022/07/05 02:14:24;;;;;;;5.90;4.00;;;;;;;;;;5012001;28;20034;-78
2022/07/05 02:16:50;;;;;;;6.28;4.50;;;;;;;;;;5010782;28;20476;-79
2022/07/05 02:19:16;;;;;;;6.55;4.57;;;;;;;;;;5012425;28;20018;-79
2022/07/05 02:21:42;;;;;;;6.50;4.60;;;;;;;;;;5012995;28;20541;-79
2022/07/05 02:24:08;;;;;;;7.50;4.40;;;;;;;;;;5010833;28;20504;-79
2022/07/05 02:26:34;;;;;;;7.03;4.97;;;;;;;;;;4995948;28;20030;-78
2022/07/05 02:29:02;;;;;;;7.30;5.07;;;;;;;;;;4996530;28;20575;-79
2022/07/05 02:31:28;;;;;;;7.10;4.38;;;;;;;;;;4996084;28;20041;-79
2022/07/05 02:33:54;;;;;;;5.85;4.20;;;;;;;;;;4996750;28;20144;-79
2022/07/05 02:36:20;;;;;;;7.63;4.43;;;;;;;;;;5015698;28;20510;-79
2022/07/05 02:38:46;;;;;;;6.75;4.10;;;;;;;;;;5016039;28;20022;-79
2022/07/05 02:41:12;;;;;;;8.27;4.82;;;;;;;;;;5016021;28;20022;-78
2022/07/05 02:43:38;;;;;;;16.40;11.60;;;;;;;;;;5015601;28;20029;-78
2022/07/05 02:46:07;;;;;;;11.45;8.60;;;;;;;;;;5012697;28;20032;-78
2022/07/05 02:48:34;;;;;;;9.60;7.32;;;;;;;;;;5015449;28;20038;-79
2022/07/05 02:51:00;;;;;;;14.45;9.90;;;;;;;;;;5015945;28;20128;-78
2022/07/05 02:53:26;;;;;;;8.60;5.60;;;;;;;;;;5016113;28;20080;-81
2022/07/05 02:55:52;;;;;;;5.72;3.78;;;;;;;;;;4985350;28;20027;-80
2022/07/05 02:58:18;;;;;;;6.93;3.28;;;;;;;;;;5001115;28;20027;-80
2022/07/05 03:00:45;;;;;;;6.35;3.30;;;;;;;;;;5012777;28;20022;-78
2022/07/05 03:03:11;;;;;;;5.82;3.60;;;;;;;;;;5004827;28;20108;-78
2022/07/05 03:05:37;;;;;;;5.55;3.50;;;;;;;;;;4995511;28;20428;-79
2022/07/05 03:08:03;;;;;;;6.35;3.80;;;;;;;;;;5008436;28;20034;-79
2022/07/05 03:10:29;;;;;;;4.97;3.15;;;;;;;;;;5014936;28;20026;-78
2022/07/05 03:12:55;;;;;;;6.32;4.00;;;;;;;;;;5013402;28;20440;-78
2022/07/05 03:15:23;;;;;;;8.10;4.60;;;;;;;;;;5014837;28;20033;-78
2022/07/05 03:17:49;;;;;;;5.70;3.55;;;;;;;;;;5006273;28;20370;-78
2022/07/05 03:20:15;;;;;;;8.52;5.85;;;;;;;;;;4994276;28;20061;-78
2022/07/05 03:22:41;;;;;;;8.27;6.38;;;;;;;;;;4999020;28;20053;-79
2022/07/05 03:25:08;;;;;;;9.13;7.03;;;;;;;;;;5004199;28;20034;-78
2022/07/05 03:27:34;;;;;;;9.07;8.10;;;;;;;;;;4994959;28;20220;-78
2022/07/05 03:30:00;;;;;;;7.13;4.78;;;;;;;;;;4995376;28;20026;-78
2022/07/05 03:32:26;;;;;;;7.53;5.45;;;;;;;;;;5014357;28;20404;-78
2022/07/05 03:34:52;;;;;;;7.85;6.00;;;;;;;;;;5012278;28;20042;-78
2022/07/05 03:37:18;;;;;;;7.35;5.00;;;;;;;;;;5013899;28;20029;-79
2022/07/05 03:39:44;;;;;;;7.60;3.85;;;;;;;;;;5012873;28;20113;-78
2022/07/05 03:42:10;;;;;;;6.20;3.88;;;;;;;;;;5013883;28;20028;-78
2022/07/05 03:44:36;;;;;;;8.48;6.07;;;;;;;;;;5010830;28;20037;-78
2022/07/05 03:47:02;;;;;;;6.22;4.53;;;;;;;;;;4994681;28;20529;-78
2022/07/05 03:49:28;;;;;;;6.78;4.75;;;;;;;;;;4994629;28;20113;-78
2022/07/05 03:51:54;;;;;;;7.22;4.95;;;;;;;;;;4994418;28;20030;-79
2022/07/05 03:54:20;;;;;;;6.45;4.07;;;;;;;;;;4993558;28;20034;-78
2022/07/05 03:56:46;;;;;;;6.47;3.83;;;;;;;;;;5007279;28;20038;-78
2022/07/05 03:59:12;;;;;;;5.97;4.72;;;;;;;;;;5013901;28;20061;-78
2022/07/05 04:01:38;;;;;;;6.15;4.32;;;;;;;;;;5013618;28;20088;-78
2022/07/05 04:04:04;;;;;;;6.47;4.38;;;;;;;;;;5013356;28;20026;-78
2022/07/05 04:06:30;;;;;;;5.90;4.80;;;;;;;;;;5010261;28;21887;-79
2022/07/05 04:08:56;;;;;;;6.68;4.90;;;;;;;;;;5013135;28;20061;-79
2022/07/05 04:11:22;;;;;;;6.43;4.80;;;;;;;;;;5012757;28;20033;-78
2022/07/05 04:13:48;;;;;;;7.85;4.80;;;;;;;;;;5012908;28;20480;-78
2022/07/05 04:16:14;;;;;;;7.00;5.05;;;;;;;;;;5011382;28;20560;-79
2022/07/05 04:18:40;;;;;;;6.38;5.03;;;;;;;;;;5012835;28;20021;-78
2022/07/05 04:21:06;;;;;;;7.95;5.60;;;;;;;;;;5012738;28;20369;-78
2022/07/05 04:23:32;;;;;;;8.90;5.95;;;;;;;;;;5012787;28;20108;-78
2022/07/05 04:26:00;;;;;;;8.07;5.05;;;;;;;;;;4997547;28;20057;-78
2022/07/05 04:28:26;;;;;;;7.15;5.15;;;;;;;;;;4990900;28;20054;-78
2022/07/05 04:30:52;;;;;;;6.95;5.00;;;;;;;;;;4973321;28;20027;-78
2022/07/05 04:33:18;;;;;;;9.57;7.00;;;;;;;;;;4988216;28;20031;-78
2022/07/05 04:35:44;;;;;;;7.25;6.30;;;;;;;;;;4996324;28;20054;-79
2022/07/05 04:38:10;;;;;;;10.43;7.50;;;;;;;;;;5011222;28;20030;-79
2022/07/05 04:40:36;;;;;;;9.45;7.32;;;;;;;;;;5013720;28;20484;-79
2022/07/05 04:43:02;;;;;;;10.35;8.10;;;;;;;;;;5013685;28;20504;-79
2022/07/05 04:45:28;;;;;;;8.50;6.80;;;;;;;;;;5012547;28;20109;-79
2022/07/05 04:47:54;;;;;;;10.07;7.10;;;;;;;;;;5013619;28;20026;-79
2022/07/05 04:50:20;;;;;;;8.43;6.53;;;;;;;;;;5013477;28;20101;-78
2022/07/05 04:52:46;;;;;;;6.60;4.80;;;;;;;;;;5013397;28;20120;-79
2022/07/05 04:55:12;;;;;;;7.25;5.00;;;;;;;;;;5004530;28;20415;-79
2022/07/05 04:57:42;;;;;;;5.88;4.22;;;;;;;;;;5013338;28;20133;-79
2022/07/05 05:00:09;;;;;;;5.78;4.07;;;;;;;;;;5013429;28;20021;-80
2022/07/05 05:02:36;;;;;;;7.35;4.13;;;;;;;;;;5013368;28;20050;-79
2022/07/05 05:05:02;;;;;;;6.13;4.30;;;;;;;;;;5011785;28;20028;-78
2022/07/05 05:07:28;;;;;;;5.78;4.18;;;;;;;;;;5007224;28;20026;-79
2022/07/05 05:09:54;;;;;;;6.00;3.70;;;;;;;;;;4992082;28;20113;-78
2022/07/05 05:12:20;;;;;;;5.68;3.50;;;;;;;;;;4993099;28;20427;-79
2022/07/05 05:14:46;;;;;;;7.82;4.25;;;;;;;;;;4992208;28;20023;-79
2022/07/05 05:17:12;;;;;;;5.88;3.70;;;;;;;;;;4993194;28;20388;-79
2022/07/05 05:19:38;;;;;;;5.55;3.28;;;;;;;;;;4992905;28;20053;-79
2022/07/05 05:22:04;;;;;;;5.82;3.30;;;;;;;;;;4993199;28;20030;-78
2022/07/05 05:24:30;;;;;;;5.25;3.63;;;;;;;;;;5002445;28;20026;-79
2022/07/05 05:26:56;;;;;;;7.45;4.18;;;;;;;;;;5012690;28;20036;-78
2022/07/05 05:29:22;;;;;;;5.53;3.40;;;;;;;;;;5012565;28;20034;-79
2022/07/05 05:31:48;;;;;;;6.88;4.10;;;;;;;;;;5012049;28;20025;-78
2022/07/05 05:34:14;;;;;;;5.53;2.95;;;;;;;;;;5011594;28;20034;-79
2022/07/05 05:36:40;;;;;;;7.55;4.28;;;;;;;;;;5012311;28;20037;-79
2022/07/05 05:39:06;;;;;;;7.10;4.35;;;;;;;;;;4981242;28;20026;-79
2022/07/05 05:41:32;;;;;;;5.72;3.33;;;;;;;;;;4973418;28;20026;-79
2022/07/05 05:43:58;;;;;;;6.75;3.83;;;;;;;;;;4984814;28;20496;-78
2022/07/05 05:46:24;;;;;;;5.57;3.20;;;;;;;;;;5012369;28;20046;-79
2022/07/05 05:48:50;;;;;;;6.28;3.47;;;;;;;;;;5012411;28;20563;-79
2022/07/05 05:51:16;;;;;;;7.60;2.92;;;;;;;;;;5012458;28;20077;-79
2022/07/05 05:53:45;;;;;;;5.80;2.90;;;;;;;;;;5006364;28;20030;-78
2022/07/05 05:56:11;;;;;;;5.50;3.70;;;;;;;;;;5008600;28;20084;-78
2022/07/05 05:58:37;;;;;;;4.78;3.20;;;;;;;;;;5013869;28;20100;-79
2022/07/05 06:01:03;;;;;;;4.93;3.17;;;;;;;;;;5015438;28;20399;-78
2022/07/05 06:03:29;;;;;;;6.20;3.60;;;;;;;;;;5015898;28;20013;-79
2022/07/05 06:05:55;;;;;;;4.95;3.25;;;;;;;;;;5014253;28;20030;-78
2022/07/05 06:08:21;;;;;;;5.85;3.13;;;;;;;;;;4993322;28;20109;-78
2022/07/05 06:10:48;;;;;;;5.43;3.30;;;;;;;;;;4996051;28;20102;-79
2022/07/05 06:13:14;;;;;;;7.72;4.38;;;;;;;;;;4995857;28;20600;-79
2022/07/05 06:15:41;;;;;;;6.55;3.28;;;;;;;;;;5010136;28;20060;-78
2022/07/05 06:18:07;;;;;;;6.63;3.88;;;;;;;;;;5015606;28;20024;-78
2022/07/05 06:20:34;;;;;;;5.47;3.40;;;;;;;;;;5015402;28;20101;-79
2022/07/05 06:23:01;;;;;;;6.25;3.60;;;;;;;;;;5015015;28;20026;-78
2022/07/05 06:25:28;;;;;;;7.90;4.18;;;;;;;;;;5014071;28;20418;-79
2022/07/05 06:27:55;;;;;;;10.05;4.20;;;;;;;;;;5015346;28;20030;-78
2022/07/05 06:30:24;;;;;;;5.65;3.83;;;;;;;;;;5015141;28;20033;-79
2022/07/05 06:32:50;;;;;;;6.90;4.18;;;;;;;;;;5014810;28;20121;-79
2022/07/05 06:35:17;;;;;;;6.95;4.30;;;;;;;;;;5012880;28;20053;-79
2022/07/05 06:37:47;;;;;;;5.80;3.80;;;;;;;;;;5005523;28;20102;-78
2022/07/05 06:40:14;;;;;;;5.32;3.75;;;;;;;;;;4995434;28;20030;-78
2022/07/05 06:42:40;;;;;;;6.45;4.60;;;;;;;;;;4994979;28;20030;-78
2022/07/05 06:45:07;;;;;;;6.47;5.07;;;;;;;;;;5005927;28;20480;-77
2022/07/05 06:47:33;;;;;;;7.65;5.10;;;;;;;;;;5015226;28;20041;-78
2022/07/05 06:50:00;;;;;;;6.90;4.55;;;;;;;;;;5014885;28;20026;-79
2022/07/05 06:52:26;;;;;;;6.00;4.03;;;;;;;;;;5014367;28;20029;-78
2022/07/05 06:54:52;;;;;;;6.50;4.63;;;;;;;;;;5011573;28;20385;-79
2022/07/05 06:57:21;;;;;;;7.80;5.50;;;;;;;;;;5014788;28;20056;-79
2022/07/05 06:59:47;;;;;;;8.43;5.22;;;;;;;;;;5014945;28;20022;-79
2022/07/05 07:02:13;;;;;;;10.38;7.15;;;;;;;;;;5015967;28;20032;-78
2022/07/05 07:04:39;;;;;;;9.30;6.65;;;;;;;;;;5013516;28;20034;-78
2022/07/05 07:09:17;;;;;;;9.68;6.82;;;;;;;;;;5006087;28;20026;-79
2022/07/05 07:09:51;;;;;;;8.20;4.95;;;;;;;;;;4994593;28;20029;-78
2022/07/05 07:12:18;;;;;;;8.02;5.50;;;;;;;;;;4995782;28;20022;-81
2022/07/05 07:14:45;;;;;;;6.45;4.40;;;;;;;;;;5002046;28;20068;-78
2022/07/05 07:17:11;;;;;;;8.38;5.93;;;;;;;;;;5014583;28;20025;-78
2022/07/05 07:19:39;;;;;;;4.95;3.35;;;;;;;;;;5015179;28;20026;-77
2022/07/05 07:22:05;;;;;;;6.32;4.72;;;;;;;;;;5014311;28;20392;-77
2022/07/05 07:24:31;;;;;;;7.10;3.92;;;;;;;;;;5012672;28;20034;-77
2022/07/05 07:27:03;;;;;;;6.72;4.10;;;;;;;;;;5015013;28;20026;-77
2022/07/05 07:29:33;;;;;;;5.80;4.07;;;;;;;;;;5015050;28;20476;-77
2022/07/05 07:31:59;;;;;;;6.13;3.88;;;;;;;;;;5014230;28;20030;-76
2022/07/05 07:34:26;;;;;;;4.53;3.17;;;;;;;;;;5011863;28;20133;-78
2022/07/05 07:36:53;;;;;;;6.32;3.65;;;;;;;;;;5010105;28;20040;-79
2022/07/05 07:39:19;;;;;;;4.60;3.10;;;;;;;;;;4994703;28;20081;-78
2022/07/05 07:41:45;;;;;;;5.18;3.25;;;;;;;;;;4994505;28;20406;-78
2022/07/05 07:44:12;;;;;;;6.55;3.70;;;;;;;;;;4994289;28;20022;-79
2022/07/05 07:46:41;;;;;;;5.90;3.53;;;;;;;;;;5015380;28;20428;-79
2022/07/05 07:49:07;;;;;;;6.85;3.83;;;;;;;;;;5014037;28;20381;-79
2022/07/05 07:51:33;;;;;;;6.03;3.60;;;;;;;;;;5005715;28;20491;-79
2022/07/05 07:53:59;;;;;;;4.35;2.80;;;;;;;;;;5014423;28;20030;-79
2022/07/05 07:56:25;;;;;;;4.68;3.15;;;;;;;;;;5013947;28;20034;-80
2022/07/05 07:58:51;;;;;;;4.78;3.00;;;;;;;;;;5013404;28;20022;-80
2022/07/05 08:01:18;;;;;;;5.32;3.30;;;;;;;;;;5011705;28;20388;-79
2022/07/05 08:03:44;;;;;;;4.97;3.17;;;;;;;;;;5014060;28;20456;-79
2022/07/05 08:06:11;;;;;;;4.40;2.97;;;;;;;;;;5012715;28;20025;-80
2022/07/05 08:08:38;;;;;;;4.65;3.10;;;;;;;;;;4998992;28;20030;-79
2022/07/05 08:11:04;;;;;;;5.50;3.30;;;;;;;;;;4995136;28;20045;-79
2022/07/05 08:13:30;;;;;;;5.70;3.15;;;;;;;;;;4994893;28;20034;-79
2022/07/05 08:15:56;;;;;;;7.32;4.05;;;;;;;;;;5004393;28;20026;-76
2022/07/05 08:23:54;;;;;;;6.35;3.00;;;;;;;;;;4995923;28;20559;-78
2022/07/05 08:26:20;;;;;;;4.60;3.20;;;;;;;;;;5007011;28;20083;-79
2022/07/05 08:28:46;;;;;;;6.97;3.95;;;;;;;;;;5015500;28;20430;-79
2022/07/05 08:31:12;;;;;;;5.03;2.88;;;;;;;;;;5016153;28;20025;-79
2022/07/05 08:33:38;;;;;;;4.97;3.35;;;;;;;;;;5014799;28;20025;-80
2022/07/05 08:36:05;;;;;;;4.93;3.17;;;;;;;;;;5002687;28;20046;-80
2022/07/05 08:38:31;;;;;;;4.70;3.05;;;;;;;;;;4996373;28;20073;-80
2022/07/05 08:40:57;;;;;;;5.10;3.72;;;;;;;;;;4994751;28;20022;-78
2022/07/05 08:43:24;;;;;;;5.45;2.78;;;;;;;;;;4995095;28;20034;-79
2022/07/05 08:45:50;;;;;;;4.00;2.30;;;;;;;;;;5002767;28;20086;-78
2022/07/05 08:48:17;;;;;;;4.85;2.90;;;;;;;;;;5000293;28;20030;-79
2022/07/05 08:50:43;;;;;;;4.97;2.80;;;;;;;;;;4996177;28;20026;-80
2022/07/05 08:53:10;;;;;;;5.30;2.78;;;;;;;;;;4996054;28;20029;-80
2022/07/05 08:55:36;;;;;;;4.38;2.30;;;;;;;;;;5001475;28;20033;-79
2022/07/05 08:58:02;;;;;;;4.65;2.50;;;;;;;;;;5016202;28;20112;-81
2022/07/05 09:00:28;;;;;;;4.43;2.20;;;;;;;;;;5016738;28;20026;-79
2022/07/05 09:02:55;;;;;;;5.50;2.22;;;;;;;;;;5015652;28;20034;-79
2022/07/05 09:05:22;;;;;;;5.95;2.50;;;;;;;;;;5014615;28;20116;-80
2022/07/05 09:08:01;;;;;;;4.63;2.33;;;;;;;;;;5015953;28;20402;-79
2022/07/05 09:10:28;;;;;;;4.00;2.33;;;;;;;;;;5015505;28;20524;-80
2022/07/05 09:12:54;;;;;;;5.35;2.63;;;;;;;;;;5014445;28;20109;-78
2022/07/05 09:15:21;;;;;;;5.40;3.17;;;;;;;;;;5007421;28;20029;-81
2022/07/05 09:17:47;;;;;;;4.43;2.33;;;;;;;;;;4985751;28;20022;-80
2022/07/05 09:20:14;;;;;;;4.05;2.28;;;;;;;;;;4994087;28;20384;-80
2022/07/05 09:22:48;;;;;;;5.55;2.60;;;;;;;;;;4994939;28;20396;-79
2022/07/05 09:25:18;;;;;;;5.72;2.53;;;;;;;;;;4996291;28;20098;-79
2022/07/05 09:27:48;;;;;;;4.80;2.50;;;;;;;;;;5014721;28;20468;-79
2022/07/05 09:30:24;;;;;;;5.55;3.65;;;;;;;;;;5015208;28;20024;-79
2022/07/05 09:33:00;;;;;;;4.68;2.92;;;;;;;;;;5013553;28;20388;-80
2022/07/05 09:35:28;;;;;;;5.63;3.15;;;;;;;;;;5013639;28;20042;-79
2022/07/05 09:37:54;;;;;;;4.80;2.63;;;;;;;;;;5013522;28;20022;-80
2022/07/05 09:40:20;;;;;;;5.60;3.17;;;;;;;;;;5014547;28;20026;-80
2022/07/05 09:42:46;;;;;;;7.80;4.40;;;;;;;;;;5014691;28;20488;-80
2022/07/05 09:45:13;;;;;;;4.57;2.67;;;;;;;;;;5013629;28;20088;-80
2022/07/05 09:47:39;;;;;;;4.72;2.90;;;;;;;;;;5014602;28;20109;-80
2022/07/05 09:50:08;;;;;;;5.82;3.10;;;;;;;;;;5009379;28;20121;-79
2022/07/05 09:52:38;;;;;;;5.45;2.75;;;;;;;;;;4995062;28;20258;-80
2022/07/05 09:55:07;;;;;;;5.60;3.63;;;;;;;;;;4994504;28;20023;-80
2022/07/05 09:57:36;;;;;;;5.72;3.38;;;;;;;;;;5011428;28;20030;-80
2022/07/05 10:00:10;;;;;;;6.80;3.40;;;;;;;;;;5013870;28;20420;-80
2022/07/05 10:02:39;;;;;;;6.30;3.30;;;;;;;;;;5013083;28;20387;-79
2022/07/05 10:05:13;;;;;;;7.07;4.07;;;;;;;;;;5012593;28;20049;-79
2022/07/05 10:07:40;;;;;;;4.75;2.90;;;;;;;;;;5010779;28;20399;-79
2022/07/05 10:10:07;;;;;;;5.82;3.00;;;;;;;;;;5013531;28;20026;-79
2022/07/05 10:12:33;;;;;;;5.30;3.10;;;;;;;;;;5012376;28;20030;-79
2022/07/05 10:15:00;;;;;;;6.30;3.72;;;;;;;;;;5012811;28;20030;-78
2022/07/05 10:17:27;;;;;;;6.28;3.17;;;;;;;;;;5000906;28;20050;-78
2022/07/05 10:19:54;;;;;;;5.80;3.30;;;;;;;;;;4979922;28;20023;-79
2022/07/05 10:22:21;;;;;;;5.15;3.33;;;;;;;;;;4973856;28;20100;-79
2022/07/05 10:24:47;;;;;;;5.85;3.70;;;;;;;;;;4973488;28;20508;-80
2022/07/05 10:27:14;;;;;;;5.18;2.78;;;;;;;;;;4981901;28;20099;-79
2022/07/05 10:29:41;;;;;;;5.47;3.50;;;;;;;;;;5011147;28;20029;-79
2022/07/05 10:32:09;;;;;;;5.30;3.17;;;;;;;;;;5012702;28;20029;-80
2022/07/05 10:34:35;;;;;;;6.95;4.80;;;;;;;;;;5011354;28;20073;-79
2022/07/05 10:37:01;;;;;;;6.55;3.13;;;;;;;;;;5011522;28;20034;-79
2022/07/05 10:39:28;;;;;;;6.20;3.00;;;;;;;;;;5013463;28;20395;-81
2022/07/05 10:41:55;;;;;;;4.25;2.85;;;;;;;;;;5013055;28;20033;-80
2022/07/05 10:44:34;;;;;;;5.47;2.85;;;;;;;;;;5016238;28;20033;-79
2022/07/05 10:47:10;;;;;;;5.95;3.10;;;;;;;;;;5011796;28;20671;-79
2022/07/05 10:49:37;;;;;;;4.95;3.30;;;;;;;;;;5016570;28;20049;-80
2022/07/05 10:52:03;;;;;;;4.90;3.20;;;;;;;;;;5016045;28;20036;-79
2022/07/05 10:54:29;;;;;;;4.32;2.88;;;;;;;;;;5016197;28;20026;-80
2022/07/05 10:57:13;;;;;;;4.90;3.50;;;;;;;;;;5014372;28;20400;-80
2022/07/05 10:59:58;;;;;;;4.18;2.63;;;;;;;;;;5015150;28;20034;-80
2022/07/05 11:02:24;;;;;;;5.32;3.05;;;;;;;;;;5016486;28;20026;-79
2022/07/05 11:04:55;;;;;;;5.65;3.38;;;;;;;;;;5009942;28;20449;-79
2022/07/05 11:07:40;;;;;;;4.68;3.22;;;;;;;;;;4995954;28;20061;-79
2022/07/05 11:10:07;;;;;;;5.13;3.42;;;;;;;;;;4997535;28;20033;-80
2022/07/05 11:12:39;;;;;;;5.68;3.28;;;;;;;;;;4997124;28;20037;-79
2022/07/05 11:15:06;;;;;;;5.45;3.38;;;;;;;;;;4997922;28;20030;-80
2022/07/05 11:17:34;;;;;;;7.25;3.63;;;;;;;;;;4997318;28;20504;-80
2022/07/05 11:20:03;;;;;;;5.93;3.60;;;;;;;;;;4997782;28;20038;-80
2022/07/05 11:22:30;;;;;;;6.15;3.72;;;;;;;;;;4997694;28;20065;-80
2022/07/05 11:24:56;;;;;;;4.75;3.03;;;;;;;;;;4995856;28;20026;-79
2022/07/05 11:27:22;;;;;;;5.05;3.40;;;;;;;;;;4996148;28;20029;-79
2022/07/05 11:29:49;;;;;;;4.75;3.25;;;;;;;;;;4997539;28;20093;-79
2022/07/05 11:32:19;;;;;;;5.30;3.83;;;;;;;;;;4997238;28;20384;-80
2022/07/05 11:34:56;;;;;;;5.72;3.60;;;;;;;;;;4994982;28;20043;-79
2022/07/05 11:37:28;;;;;;;7.22;3.75;;;;;;;;;;4996455;28;20019;-80
2022/07/05 11:40:06;;;;;;;6.70;3.40;;;;;;;;;;4996991;28;20042;-80
2022/07/05 11:42:41;;;;;;;5.50;3.35;;;;;;;;;;4997464;28;20054;-80
2022/07/05 11:45:08;;;;;;;5.30;3.63;;;;;;;;;;4996607;28;20444;-79
2022/07/05 11:47:34;;;;;;;4.93;3.60;;;;;;;;;;4996166;28;20109;-80
2022/07/05 11:50:00;;;;;;;7.88;3.25;;;;;;;;;;4996423;28;20046;-80
2022/07/05 11:52:27;;;;;;;5.22;3.40;;;;;;;;;;4995980;28;20019;-79
2022/07/05 11:54:54;;;;;;;6.18;3.33;;;;;;;;;;4995641;28;20027;-82
2022/07/05 11:57:20;;;;;;;8.73;5.10;;;;;;;;;;4994093;28;20022;-79
2022/07/05 11:59:47;;;;;;;4.88;3.58;;;;;;;;;;4995852;28;20045;-79
2022/07/05 12:02:13;;;;;;;7.05;4.53;;;;;;;;;;4994763;28;20027;-79
2022/07/05 12:04:39;;;;;;;4.72;3.35;;;;;;;;;;4995225;28;20037;-79
2022/07/05 12:07:05;;;;;;;5.22;3.60;;;;;;;;;;4993921;28;20032;-79
2022/07/05 12:12:42;;;;;;;7.40;3.40;;;;;;;;;;4995818;28;20030;-78
2022/07/05 12:15:07;;;;;;;5.18;3.42;;;;;;;;;;4996513;28;20033;-80
2022/07/05 12:17:36;;;;;;;4.60;3.13;;;;;;;;;;5002766;28;20030;-79
2022/07/05 12:20:02;;;;;;;6.53;3.92;;;;;;;;;;5015292;28;20053;-80
2022/07/05 12:22:33;;;;;;;6.13;4.68;;;;;;;;;;5015096;28;20026;-80
2022/07/05 12:25:01;;;;;;;8.48;4.22;;;;;;;;;;5015680;28;20049;-79
2022/07/05 12:27:28;;;;;;;7.63;4.55;;;;;;;;;;5012761;28;20014;-80
2022/07/05 12:29:54;;;;;;;5.63;3.88;;;;;;;;;;5014956;28;20049;-79
2022/07/05 12:32:20;;;;;;;5.63;4.20;;;;;;;;;;5014395;28;20052;-79
2022/07/05 12:34:46;;;;;;;7.18;4.82;;;;;;;;;;5006550;28;20539;-79
2022/07/05 12:37:20;;;;;;;5.75;4.13;;;;;;;;;;4996680;28;20022;-79
2022/07/05 12:39:47;;;;;;;5.80;4.57;;;;;;;;;;5007435;28;20050;-79
2022/07/05 12:42:32;;;;;;;7.38;4.90;;;;;;;;;;5012947;28;20018;-80
2022/07/05 12:45:15;;;;;;;6.55;4.82;;;;;;;;;;5014216;28;20163;-78
2022/07/05 12:47:57;;;;;;;6.07;4.47;;;;;;;;;;5013543;28;20036;-80
2022/07/05 12:50:24;;;;;;;7.95;4.55;;;;;;;;;;5012531;28;20403;-79
2022/07/05 12:58:46;;;;;;;5.97;4.63;;;;;;;;;;4995032;28;20512;-80
2022/07/05 13:01:39;;;;;;;5.75;4.47;;;;;;;;;;4992596;28;20309;-78
2022/07/05 13:04:09;;;;;;;7.32;5.75;;;;;;;;;;4993593;28;20042;-78
2022/07/05 13:06:41;;;;;;;6.38;4.90;;;;;;;;;;4997627;28;20030;-79
2022/07/05 13:09:07;;;;;;;5.90;5.13;;;;;;;;;;5014279;28;20028;-78
2022/07/05 13:11:33;;;;;;;6.15;5.30;;;;;;;;;;5014091;28;20030;-80
2022/07/05 13:13:59;;;;;;;5.70;5.10;;;;;;;;;;5014118;28;20097;-80
2022/07/05 13:16:25;;;;;;;5.50;4.78;;;;;;;;;;5012263;28;20038;-77
2022/07/05 13:18:51;;;;;;;6.03;5.03;;;;;;;;;;5013794;28;20104;-79
2022/07/05 13:21:17;;;;;;;5.90;5.05;;;;;;;;;;5013865;28;20476;-79
2022/07/05 13:23:43;;;;;;;6.15;5.13;;;;;;;;;;5014052;28;20030;-79
2022/07/05 13:26:09;;;;;;;6.28;4.93;;;;;;;;;;4996627;28;20034;-79
2022/07/05 13:28:35;;;;;;;6.18;5.40;;;;;;;;;;4986750;28;20525;-78
2022/07/05 13:31:01;;;;;;;6.32;5.13;;;;;;;;;;4974032;28;20035;-78
2022/07/05 13:33:27;;;;;;;5.57;4.97;;;;;;;;;;4974678;28;20034;-79
2022/07/05 13:35:54;;;;;;;7.10;5.43;;;;;;;;;;4999975;28;20042;-79
2022/07/05 13:38:20;;;;;;;6.32;5.53;;;;;;;;;;5012223;28;20028;-79
2022/07/05 13:40:46;;;;;;;7.00;5.38;;;;;;;;;;5013398;28;20108;-79
2022/07/05 13:43:12;;;;;;;6.43;5.35;;;;;;;;;;5013636;28;20391;-81
2022/07/05 13:45:39;;;;;;;6.65;5.70;;;;;;;;;;5013646;28;20030;-80
2022/07/05 13:48:05;;;;;;;6.65;5.95;;;;;;;;;;5012489;28;20084;-79
2022/07/05 13:50:31;;;;;;;5.57;4.97;;;;;;;;;;5013175;28;20026;-80
2022/07/05 13:52:57;;;;;;;7.32;5.40;;;;;;;;;;5005048;28;20034;-79
2022/07/05 13:55:23;;;;;;;6.82;6.13;;;;;;;;;;4993521;28;20560;-78
2022/07/05 13:57:49;;;;;;;6.75;4.97;;;;;;;;;;5002593;28;20109;-79
2022/07/05 14:00:15;;;;;;;6.53;5.60;;;;;;;;;;5013451;28;20084;-79
2022/07/05 14:02:42;;;;;;;6.55;5.72;;;;;;;;;;5012893;28;20088;-79
2022/07/05 14:05:08;;;;;;;6.47;5.25;;;;;;;;;;5012922;28;20105;-79
2022/07/05 14:07:34;;;;;;;7.18;5.50;;;;;;;;;;5011539;28;20080;-80
2022/07/05 14:10:00;;;;;;;6.47;5.78;;;;;;;;;;5012940;28;20022;-79
2022/07/05 14:12:26;;;;;;;6.35;5.72;;;;;;;;;;5013664;28;20022;-79
2022/07/05 14:14:52;;;;;;;6.30;5.55;;;;;;;;;;5012782;28;20046;-79
2022/07/05 14:17:18;;;;;;;7.05;5.40;;;;;;;;;;5011794;28;20550;-79
2022/07/05 14:19:44;;;;;;;6.50;5.80;;;;;;;;;;5016887;28;20042;-79
2022/07/05 14:22:10;;;;;;;6.25;5.65;;;;;;;;;;5015414;28;20026;-79
2022/07/05 14:24:36;;;;;;;11.45;6.63;;;;;;;;;;4995939;28;20030;-79
2022/07/05 14:27:02;;;;;;;6.25;5.60;;;;;;;;;;4999192;28;20056;-80
2022/07/05 14:29:28;;;;;;;6.80;6.00;;;;;;;;;;5016188;28;20030;-79
2022/07/05 14:31:54;;;;;;;6.38;5.35;;;;;;;;;;5015040;28;20050;-79
2022/07/05 14:34:20;;;;;;;7.00;6.22;;;;;;;;;;5016556;28;20100;-79
2022/07/05 14:36:46;;;;;;;6.25;5.65;;;;;;;;;;5014995;28;20388;-79
2022/07/05 14:39:12;;;;;;;6.40;5.70;;;;;;;;;;4977991;28;20023;-78
2022/07/05 14:41:38;;;;;;;6.60;5.85;;;;;;;;;;4977509;28;20023;-79
2022/07/05 14:44:04;;;;;;;7.18;6.47;;;;;;;;;;4978143;28;20230;-79
2022/07/05 14:46:30;;;;;;;6.85;5.97;;;;;;;;;;4992375;28;20039;-79
2022/07/05 14:48:56;;;;;;;6.82;6.13;;;;;;;;;;4994859;28;20033;-80
2022/07/05 14:51:22;;;;;;;7.97;7.00;;;;;;;;;;4996064;28;20018;-78
2022/07/05 14:53:48;;;;;;;8.70;7.05;;;;;;;;;;4996003;28;20113;-79
2022/07/05 14:56:15;;;;;;;8.18;6.72;;;;;;;;;;4995432;28;20027;-79
2022/07/05 14:58:41;;;;;;;7.60;6.68;;;;;;;;;;4983834;28;20414;-82